sensor_id;sensor_type;location;lat;lon;timestamp;P1;durP1;ratioP1;P2;durP2;ratioP2
25301;SDS011;13243;50.888;4.724;2022-11-15T00:00:12;30.77;;;15.50;;
25301;SDS011;13243;50.888;4.724;2022-11-15T00:05:14;36.33;;;17.17;;
25301;SDS011;13243;50.888;4.724;2022-11-15T00:10:16;33.47;;;16.02;;
25301;SDS011;13243;50.888;4.724;2022-11-15T00:15:19;31.83;;;15.73;;
25301;SDS011;13243;50.888;4.724;2022-11-15T00:20:21;36.17;;;16.98;;
25301;SDS011;13243;50.888;4.724;2022-11-15T00:25:23;32.63;;;17.15;;
25301;SDS011;13243;50.888;4.724;2022-11-15T00:30:25;33.97;;;17.05;;
25301;SDS011;13243;50.888;4.724;2022-11-15T00:35:27;28.50;;;15.10;;
25301;SDS011;13243;50.888;4.724;2022-11-15T00:40:29;34.50;;;16.50;;
25301;SDS011;13243;50.888;4.724;2022-11-15T00:45:31;31.48;;;15.88;;
25301;SDS011;13243;50.888;4.724;2022-11-15T00:50:33;32.65;;;17.13;;
25301;SDS011;13243;50.888;4.724;2022-11-15T00:55:35;38.45;;;17.90;;
25301;SDS011;13243;50.888;4.724;2022-11-15T01:00:37;36.97;;;17.00;;
25301;SDS011;13243;50.888;4.724;2022-11-15T01:05:39;31.83;;;16.80;;
25301;SDS011;13243;50.888;4.724;2022-11-15T01:10:40;33.03;;;16.90;;
25301;SDS011;13243;50.888;4.724;2022-11-15T01:15:42;40.00;;;17.67;;
25301;SDS011;13243;50.888;4.724;2022-11-15T01:20:44;37.65;;;17.40;;
25301;SDS011;13243;50.888;4.724;2022-11-15T01:25:46;38.05;;;18.95;;
25301;SDS011;13243;50.888;4.724;2022-11-15T01:30:48;36.03;;;17.77;;
25301;SDS011;13243;50.888;4.724;2022-11-15T01:35:49;45.75;;;19.90;;
25301;SDS011;13243;50.888;4.724;2022-11-15T01:40:51;37.97;;;19.33;;
25301;SDS011;13243;50.888;4.724;2022-11-15T01:46:04;37.42;;;18.63;;
25301;SDS011;13243;50.888;4.724;2022-11-15T01:51:16;34.78;;;18.40;;
25301;SDS011;13243;50.888;4.724;2022-11-15T01:56:21;43.03;;;19.40;;
25301;SDS011;13243;50.888;4.724;2022-11-15T02:01:26;38.90;;;19.48;;
25301;SDS011;13243;50.888;4.724;2022-11-15T02:06:29;34.40;;;18.00;;
25301;SDS011;13243;50.888;4.724;2022-11-15T02:11:32;44.15;;;19.42;;
25301;SDS011;13243;50.888;4.724;2022-11-15T02:22:14;40.75;;;18.63;;
25301;SDS011;13243;50.888;4.724;2022-11-15T02:43:49;32.92;;;16.70;;
25301;SDS011;13243;50.888;4.724;2022-11-15T02:48:59;31.92;;;17.30;;
25301;SDS011;13243;50.888;4.724;2022-11-15T02:54:01;34.20;;;17.60;;
25301;SDS011;13243;50.888;4.724;2022-11-15T02:59:23;34.30;;;17.58;;
25301;SDS011;13243;50.888;4.724;2022-11-15T03:09:43;34.17;;;18.38;;
25301;SDS011;13243;50.888;4.724;2022-11-15T03:15:06;33.53;;;17.17;;
25301;SDS011;13243;50.888;4.724;2022-11-15T03:20:32;36.40;;;17.00;;
25301;SDS011;13243;50.888;4.724;2022-11-15T03:25:36;33.50;;;18.00;;
25301;SDS011;13243;50.888;4.724;2022-11-15T03:30:43;37.42;;;18.52;;
25301;SDS011;13243;50.888;4.724;2022-11-15T03:35:46;40.95;;;18.27;;
25301;SDS011;13243;50.888;4.724;2022-11-15T03:46:02;37.13;;;17.00;;
25301;SDS011;13243;50.888;4.724;2022-11-15T03:51:09;32.55;;;16.30;;
25301;SDS011;13243;50.888;4.724;2022-11-15T03:56:12;35.63;;;16.77;;
25301;SDS011;13243;50.888;4.724;2022-11-15T04:01:14;34.33;;;16.83;;
25301;SDS011;13243;50.888;4.724;2022-11-15T04:06:16;38.83;;;15.45;;
25301;SDS011;13243;50.888;4.724;2022-11-15T04:11:17;27.63;;;15.32;;
25301;SDS011;13243;50.888;4.724;2022-11-15T04:16:19;26.50;;;13.80;;
25301;SDS011;13243;50.888;4.724;2022-11-15T04:21:21;24.90;;;13.18;;
25301;SDS011;13243;50.888;4.724;2022-11-15T04:26:41;21.02;;;11.00;;
25301;SDS011;13243;50.888;4.724;2022-11-15T04:31:43;27.40;;;13.73;;
25301;SDS011;13243;50.888;4.724;2022-11-15T04:36:45;35.63;;;14.13;;
25301;SDS011;13243;50.888;4.724;2022-11-15T04:42:05;29.23;;;13.23;;
25301;SDS011;13243;50.888;4.724;2022-11-15T04:47:08;28.95;;;13.75;;
25301;SDS011;13243;50.888;4.724;2022-11-15T04:52:10;28.33;;;11.98;;
25301;SDS011;13243;50.888;4.724;2022-11-15T04:57:11;22.90;;;10.38;;
25301;SDS011;13243;50.888;4.724;2022-11-15T05:02:13;20.05;;;10.57;;
25301;SDS011;13243;50.888;4.724;2022-11-15T05:07:15;20.55;;;10.35;;
25301;SDS011;13243;50.888;4.724;2022-11-15T05:12:17;23.10;;;10.15;;
25301;SDS011;13243;50.888;4.724;2022-11-15T05:17:19;17.55;;;10.07;;
25301;SDS011;13243;50.888;4.724;2022-11-15T05:22:21;21.05;;;8.82;;
25301;SDS011;13243;50.888;4.724;2022-11-15T05:27:22;19.77;;;9.68;;
25301;SDS011;13243;50.888;4.724;2022-11-15T05:32:24;17.83;;;8.88;;
25301;SDS011;13243;50.888;4.724;2022-11-15T05:37:26;16.33;;;8.48;;
25301;SDS011;13243;50.888;4.724;2022-11-15T05:42:29;17.23;;;8.90;;
25301;SDS011;13243;50.888;4.724;2022-11-15T05:47:32;22.55;;;8.52;;
25301;SDS011;13243;50.888;4.724;2022-11-15T05:52:37;19.75;;;8.52;;
25301;SDS011;13243;50.888;4.724;2022-11-15T05:57:39;15.98;;;8.90;;
25301;SDS011;13243;50.888;4.724;2022-11-15T06:02:41;15.07;;;7.70;;
25301;SDS011;13243;50.888;4.724;2022-11-15T06:07:43;16.20;;;8.63;;
25301;SDS011;13243;50.888;4.724;2022-11-15T06:12:45;17.77;;;8.73;;
25301;SDS011;13243;50.888;4.724;2022-11-15T06:17:47;18.02;;;8.77;;
25301;SDS011;13243;50.888;4.724;2022-11-15T06:22:48;15.40;;;8.63;;
25301;SDS011;13243;50.888;4.724;2022-11-15T06:27:51;19.30;;;8.52;;
25301;SDS011;13243;50.888;4.724;2022-11-15T06:33:00;19.05;;;10.07;;
25301;SDS011;13243;50.888;4.724;2022-11-15T06:38:03;24.05;;;8.95;;
25301;SDS011;13243;50.888;4.724;2022-11-15T06:43:07;24.00;;;9.93;;
25301;SDS011;13243;50.888;4.724;2022-11-15T06:48:08;19.85;;;9.30;;
25301;SDS011;13243;50.888;4.724;2022-11-15T06:53:10;16.40;;;8.80;;
25301;SDS011;13243;50.888;4.724;2022-11-15T06:58:12;19.70;;;9.15;;
25301;SDS011;13243;50.888;4.724;2022-11-15T07:03:14;19.92;;;9.00;;
25301;SDS011;13243;50.888;4.724;2022-11-15T07:08:16;22.15;;;8.77;;
25301;SDS011;13243;50.888;4.724;2022-11-15T07:13:18;17.00;;;8.75;;
25301;SDS011;13243;50.888;4.724;2022-11-15T07:18:20;21.13;;;8.93;;
25301;SDS011;13243;50.888;4.724;2022-11-15T07:23:22;15.57;;;8.05;;
25301;SDS011;13243;50.888;4.724;2022-11-15T07:28:24;14.73;;;8.43;;
25301;SDS011;13243;50.888;4.724;2022-11-15T07:33:27;15.10;;;7.63;;
25301;SDS011;13243;50.888;4.724;2022-11-15T07:43:39;12.65;;;5.93;;
25301;SDS011;13243;50.888;4.724;2022-11-15T07:48:41;10.77;;;5.75;;
25301;SDS011;13243;50.888;4.724;2022-11-15T07:53:45;8.57;;;5.47;;
25301;SDS011;13243;50.888;4.724;2022-11-15T07:58:46;8.48;;;4.80;;
25301;SDS011;13243;50.888;4.724;2022-11-15T08:03:48;14.98;;;5.75;;
25301;SDS011;13243;50.888;4.724;2022-11-15T08:08:50;8.45;;;4.88;;
25301;SDS011;13243;50.888;4.724;2022-11-15T08:13:52;15.45;;;5.45;;
25301;SDS011;13243;50.888;4.724;2022-11-15T08:18:53;9.02;;;4.50;;
25301;SDS011;13243;50.888;4.724;2022-11-15T08:23:55;9.85;;;3.60;;
25301;SDS011;13243;50.888;4.724;2022-11-15T08:28:57;7.45;;;3.63;;
25301;SDS011;13243;50.888;4.724;2022-11-15T08:33:59;8.68;;;2.58;;
25301;SDS011;13243;50.888;4.724;2022-11-15T08:39:01;6.72;;;2.47;;
25301;SDS011;13243;50.888;4.724;2022-11-15T08:44:04;4.93;;;2.05;;
25301;SDS011;13243;50.888;4.724;2022-11-15T08:49:06;5.53;;;2.55;;
25301;SDS011;13243;50.888;4.724;2022-11-15T08:54:07;6.68;;;2.10;;
25301;SDS011;13243;50.888;4.724;2022-11-15T08:59:09;4.55;;;1.67;;
25301;SDS011;13243;50.888;4.724;2022-11-15T09:04:11;5.28;;;1.75;;
25301;SDS011;13243;50.888;4.724;2022-11-15T09:09:13;6.20;;;1.80;;
25301;SDS011;13243;50.888;4.724;2022-11-15T09:14:15;6.03;;;2.10;;
25301;SDS011;13243;50.888;4.724;2022-11-15T09:19:17;5.68;;;1.88;;
25301;SDS011;13243;50.888;4.724;2022-11-15T09:24:19;10.82;;;2.38;;
25301;SDS011;13243;50.888;4.724;2022-11-15T09:29:21;4.93;;;1.67;;
25301;SDS011;13243;50.888;4.724;2022-11-15T09:34:23;3.72;;;1.67;;
25301;SDS011;13243;50.888;4.724;2022-11-15T09:39:24;4.20;;;1.50;;
25301;SDS011;13243;50.888;4.724;2022-11-15T09:49:51;4.28;;;1.42;;
25301;SDS011;13243;50.888;4.724;2022-11-15T09:54:59;2.88;;;1.20;;
25301;SDS011;13243;50.888;4.724;2022-11-15T10:05:30;7.45;;;1.23;;
25301;SDS011;13243;50.888;4.724;2022-11-15T10:21:40;1.80;;;1.00;;
25301;SDS011;13243;50.888;4.724;2022-11-15T10:26:50;3.90;;;1.80;;
25301;SDS011;13243;50.888;4.724;2022-11-15T10:31:52;5.00;;;1.42;;
25301;SDS011;13243;50.888;4.724;2022-11-15T10:42:14;7.97;;;1.13;;
25301;SDS011;13243;50.888;4.724;2022-11-15T10:47:22;3.35;;;1.15;;
25301;SDS011;13243;50.888;4.724;2022-11-15T10:52:26;1.75;;;1.50;;
25301;SDS011;13243;50.888;4.724;2022-11-15T10:57:32;5.88;;;1.50;;
25301;SDS011;13243;50.888;4.724;2022-11-15T11:03:24;4.40;;;1.23;;
25301;SDS011;13243;50.888;4.724;2022-11-15T11:08:04;4.10;;;1.95;;
25301;SDS011;13243;50.888;4.724;2022-11-15T11:13:22;6.30;;;1.25;;
25301;SDS011;13243;50.888;4.724;2022-11-15T11:18:41;3.90;;;1.33;;
25301;SDS011;13243;50.888;4.724;2022-11-15T11:23:52;3.22;;;1.02;;
25301;SDS011;13243;50.888;4.724;2022-11-15T11:29:08;15.63;;;1.70;;
25301;SDS011;13243;50.888;4.724;2022-11-15T11:50:51;2.20;;;1.27;;
25301;SDS011;13243;50.888;4.724;2022-11-15T11:55:56;3.75;;;1.25;;
25301;SDS011;13243;50.888;4.724;2022-11-15T12:01:11;5.15;;;1.20;;
25301;SDS011;13243;50.888;4.724;2022-11-15T12:16:53;2.95;;;0.90;;
25301;SDS011;13243;50.888;4.724;2022-11-15T12:22:03;6.05;;;1.25;;
25301;SDS011;13243;50.888;4.724;2022-11-15T12:27:15;10.77;;;1.55;;
25301;SDS011;13243;50.888;4.724;2022-11-15T12:32:29;7.93;;;1.30;;
25301;SDS011;13243;50.888;4.724;2022-11-15T12:42:59;3.08;;;1.00;;
25301;SDS011;13243;50.888;4.724;2022-11-15T12:58:27;3.10;;;1.05;;
25301;SDS011;13243;50.888;4.724;2022-11-15T13:19:40;1.27;;;1.00;;
25301;SDS011;13243;50.888;4.724;2022-11-15T13:24:42;3.03;;;1.15;;
25301;SDS011;13243;50.888;4.724;2022-11-15T13:29:44;5.32;;;1.15;;
25301;SDS011;13243;50.888;4.724;2022-11-15T13:34:47;1.95;;;1.10;;
25301;SDS011;13243;50.888;4.724;2022-11-15T13:39:52;4.40;;;1.05;;
25301;SDS011;13243;50.888;4.724;2022-11-15T13:44:58;11.82;;;1.20;;
25301;SDS011;13243;50.888;4.724;2022-11-15T13:50:01;5.35;;;1.45;;
25301;SDS011;13243;50.888;4.724;2022-11-15T13:55:19;13.60;;;1.60;;
25301;SDS011;13243;50.888;4.724;2022-11-15T14:00:25;3.10;;;1.25;;
25301;SDS011;13243;50.888;4.724;2022-11-15T14:05:27;2.28;;;1.33;;
25301;SDS011;13243;50.888;4.724;2022-11-15T14:10:35;3.25;;;1.10;;
25301;SDS011;13243;50.888;4.724;2022-11-15T14:15:38;3.17;;;1.25;;
25301;SDS011;13243;50.888;4.724;2022-11-15T14:20:41;2.33;;;1.23;;
25301;SDS011;13243;50.888;4.724;2022-11-15T14:25:51;7.35;;;1.30;;
25301;SDS011;13243;50.888;4.724;2022-11-15T14:30:58;3.75;;;1.83;;
25301;SDS011;13243;50.888;4.724;2022-11-15T14:36:06;3.08;;;1.38;;
25301;SDS011;13243;50.888;4.724;2022-11-15T14:41:17;2.72;;;1.38;;
25301;SDS011;13243;50.888;4.724;2022-11-15T14:46:21;6.03;;;1.60;;
25301;SDS011;13243;50.888;4.724;2022-11-15T14:51:23;2.08;;;1.25;;
25301;SDS011;13243;50.888;4.724;2022-11-15T14:56:25;6.55;;;2.00;;
25301;SDS011;13243;50.888;4.724;2022-11-15T15:01:27;4.25;;;1.30;;
25301;SDS011;13243;50.888;4.724;2022-11-15T15:06:28;5.57;;;1.45;;
25301;SDS011;13243;50.888;4.724;2022-11-15T15:11:31;2.72;;;1.50;;
25301;SDS011;13243;50.888;4.724;2022-11-15T15:16:33;5.95;;;1.70;;
25301;SDS011;13243;50.888;4.724;2022-11-15T15:21:35;3.55;;;1.63;;
25301;SDS011;13243;50.888;4.724;2022-11-15T15:26:38;3.00;;;1.55;;
25301;SDS011;13243;50.888;4.724;2022-11-15T15:31:40;1.90;;;1.30;;
25301;SDS011;13243;50.888;4.724;2022-11-15T15:36:42;2.92;;;1.30;;
25301;SDS011;13243;50.888;4.724;2022-11-15T15:41:44;3.78;;;1.80;;
25301;SDS011;13243;50.888;4.724;2022-11-15T15:46:46;4.32;;;2.08;;
25301;SDS011;13243;50.888;4.724;2022-11-15T15:51:48;3.67;;;1.42;;
25301;SDS011;13243;50.888;4.724;2022-11-15T15:56:49;2.42;;;1.50;;
25301;SDS011;13243;50.888;4.724;2022-11-15T16:01:56;4.18;;;1.65;;
25301;SDS011;13243;50.888;4.724;2022-11-15T16:06:59;4.07;;;1.83;;
25301;SDS011;13243;50.888;4.724;2022-11-15T16:12:02;3.83;;;1.95;;
25301;SDS011;13243;50.888;4.724;2022-11-15T16:17:03;2.17;;;1.60;;
25301;SDS011;13243;50.888;4.724;2022-11-15T16:22:06;4.70;;;2.70;;
25301;SDS011;13243;50.888;4.724;2022-11-15T16:27:18;3.78;;;2.22;;
25301;SDS011;13243;50.888;4.724;2022-11-15T16:32:21;3.95;;;2.35;;
25301;SDS011;13243;50.888;4.724;2022-11-15T16:37:24;4.78;;;2.45;;
25301;SDS011;13243;50.888;4.724;2022-11-15T16:42:25;4.38;;;2.10;;
25301;SDS011;13243;50.888;4.724;2022-11-15T16:47:27;3.45;;;2.30;;
25301;SDS011;13243;50.888;4.724;2022-11-15T16:52:29;4.30;;;2.00;;
25301;SDS011;13243;50.888;4.724;2022-11-15T16:57:31;3.97;;;2.25;;
25301;SDS011;13243;50.888;4.724;2022-11-15T17:02:33;5.22;;;2.80;;
25301;SDS011;13243;50.888;4.724;2022-11-15T17:07:34;4.47;;;2.95;;
25301;SDS011;13243;50.888;4.724;2022-11-15T17:12:36;4.18;;;2.80;;
25301;SDS011;13243;50.888;4.724;2022-11-15T17:17:39;3.63;;;2.58;;
25301;SDS011;13243;50.888;4.724;2022-11-15T17:22:41;6.88;;;3.08;;
25301;SDS011;13243;50.888;4.724;2022-11-15T17:27:43;3.20;;;2.40;;
25301;SDS011;13243;50.888;4.724;2022-11-15T17:32:45;4.95;;;2.60;;
25301;SDS011;13243;50.888;4.724;2022-11-15T17:37:48;4.97;;;2.90;;
25301;SDS011;13243;50.888;4.724;2022-11-15T17:42:49;4.97;;;2.70;;
25301;SDS011;13243;50.888;4.724;2022-11-15T17:47:51;5.45;;;2.80;;
25301;SDS011;13243;50.888;4.724;2022-11-15T17:52:54;4.35;;;2.80;;
25301;SDS011;13243;50.888;4.724;2022-11-15T17:57:56;3.53;;;2.28;;
25301;SDS011;13243;50.888;4.724;2022-11-15T18:02:58;5.72;;;3.38;;
25301;SDS011;13243;50.888;4.724;2022-11-15T18:08:00;3.75;;;2.70;;
25301;SDS011;13243;50.888;4.724;2022-11-15T18:13:02;7.80;;;3.55;;
25301;SDS011;13243;50.888;4.724;2022-11-15T18:18:04;7.40;;;3.28;;
25301;SDS011;13243;50.888;4.724;2022-11-15T18:23:06;7.57;;;2.80;;
25301;SDS011;13243;50.888;4.724;2022-11-15T18:28:07;4.78;;;2.90;;
25301;SDS011;13243;50.888;4.724;2022-11-15T18:33:09;4.38;;;3.25;;
25301;SDS011;13243;50.888;4.724;2022-11-15T18:38:11;4.32;;;2.95;;
25301;SDS011;13243;50.888;4.724;2022-11-15T18:43:13;7.35;;;3.50;;
25301;SDS011;13243;50.888;4.724;2022-11-15T18:48:15;7.63;;;3.65;;
25301;SDS011;13243;50.888;4.724;2022-11-15T18:53:16;4.88;;;3.20;;
25301;SDS011;13243;50.888;4.724;2022-11-15T18:58:18;4.53;;;3.10;;
25301;SDS011;13243;50.888;4.724;2022-11-15T19:03:20;6.25;;;2.92;;
25301;SDS011;13243;50.888;4.724;2022-11-15T19:08:32;5.38;;;3.47;;
25301;SDS011;13243;50.888;4.724;2022-11-15T19:13:35;5.80;;;2.80;;
25301;SDS011;13243;50.888;4.724;2022-11-15T19:18:37;8.02;;;4.18;;
25301;SDS011;13243;50.888;4.724;2022-11-15T19:23:40;6.53;;;4.28;;
25301;SDS011;13243;50.888;4.724;2022-11-15T19:28:42;7.00;;;4.35;;
25301;SDS011;13243;50.888;4.724;2022-11-15T19:33:45;5.53;;;3.78;;
25301;SDS011;13243;50.888;4.724;2022-11-15T19:38:47;6.72;;;4.88;;
25301;SDS011;13243;50.888;4.724;2022-11-15T19:43:49;6.72;;;4.30;;
25301;SDS011;13243;50.888;4.724;2022-11-15T19:48:52;5.90;;;3.63;;
25301;SDS011;13243;50.888;4.724;2022-11-15T19:53:59;7.95;;;4.05;;
25301;SDS011;13243;50.888;4.724;2022-11-15T19:59:06;9.32;;;4.72;;
25301;SDS011;13243;50.888;4.724;2022-11-15T20:04:09;6.13;;;3.97;;
25301;SDS011;13243;50.888;4.724;2022-11-15T20:09:11;6.68;;;4.65;;
25301;SDS011;13243;50.888;4.724;2022-11-15T20:14:14;6.18;;;3.70;;
25301;SDS011;13243;50.888;4.724;2022-11-15T20:19:16;10.50;;;4.43;;
25301;SDS011;13243;50.888;4.724;2022-11-15T20:24:18;5.78;;;3.97;;
25301;SDS011;13243;50.888;4.724;2022-11-15T20:29:20;8.80;;;5.65;;
25301;SDS011;13243;50.888;4.724;2022-11-15T20:34:22;8.98;;;5.20;;
25301;SDS011;13243;50.888;4.724;2022-11-15T20:39:24;10.43;;;5.72;;
25301;SDS011;13243;50.888;4.724;2022-11-15T20:44:26;8.40;;;5.13;;
25301;SDS011;13243;50.888;4.724;2022-11-15T20:49:27;8.05;;;4.57;;
25301;SDS011;13243;50.888;4.724;2022-11-15T20:54:29;7.00;;;4.20;;
25301;SDS011;13243;50.888;4.724;2022-11-15T20:59:31;10.18;;;4.57;;
25301;SDS011;13243;50.888;4.724;2022-11-15T21:04:34;9.95;;;5.18;;
25301;SDS011;13243;50.888;4.724;2022-11-15T21:09:36;9.25;;;4.45;;
25301;SDS011;13243;50.888;4.724;2022-11-15T21:14:57;8.32;;;5.18;;
25301;SDS011;13243;50.888;4.724;2022-11-15T21:19:58;12.50;;;5.50;;
25301;SDS011;13243;50.888;4.724;2022-11-15T21:25:01;7.45;;;4.97;;
25301;SDS011;13243;50.888;4.724;2022-11-15T21:30:03;9.27;;;4.55;;
25301;SDS011;13243;50.888;4.724;2022-11-15T21:35:06;7.63;;;5.13;;
25301;SDS011;13243;50.888;4.724;2022-11-15T21:40:08;11.32;;;5.47;;
25301;SDS011;13243;50.888;4.724;2022-11-15T21:45:11;6.18;;;4.45;;
25301;SDS011;13243;50.888;4.724;2022-11-15T21:50:12;8.18;;;5.15;;
25301;SDS011;13243;50.888;4.724;2022-11-15T21:55:14;7.28;;;5.03;;
25301;SDS011;13243;50.888;4.724;2022-11-15T22:00:16;9.82;;;5.32;;
25301;SDS011;13243;50.888;4.724;2022-11-15T22:05:37;5.60;;;3.47;;
25301;SDS011;13243;50.888;4.724;2022-11-15T22:10:39;9.40;;;5.53;;
25301;SDS011;13243;50.888;4.724;2022-11-15T22:15:43;13.23;;;6.25;;
25301;SDS011;13243;50.888;4.724;2022-11-15T22:25:54;7.45;;;5.00;;
25301;SDS011;13243;50.888;4.724;2022-11-15T22:30:57;8.93;;;6.10;;
25301;SDS011;13243;50.888;4.724;2022-11-15T22:35:59;8.20;;;5.47;;
25301;SDS011;13243;50.888;4.724;2022-11-15T22:41:02;10.40;;;6.10;;
25301;SDS011;13243;50.888;4.724;2022-11-15T22:46:04;7.70;;;4.88;;
25301;SDS011;13243;50.888;4.724;2022-11-15T22:51:06;9.27;;;5.32;;
25301;SDS011;13243;50.888;4.724;2022-11-15T22:56:09;12.13;;;5.63;;
25301;SDS011;13243;50.888;4.724;2022-11-15T23:01:19;7.95;;;4.85;;
25301;SDS011;13243;50.888;4.724;2022-11-15T23:06:22;7.95;;;5.43;;
25301;SDS011;13243;50.888;4.724;2022-11-15T23:11:24;8.20;;;5.30;;
25301;SDS011;13243;50.888;4.724;2022-11-15T23:16:44;10.13;;;5.97;;
25301;SDS011;13243;50.888;4.724;2022-11-15T23:21:46;8.02;;;4.82;;
25301;SDS011;13243;50.888;4.724;2022-11-15T23:27:06;7.85;;;5.07;;
25301;SDS011;13243;50.888;4.724;2022-11-15T23:32:08;8.00;;;4.95;;
25301;SDS011;13243;50.888;4.724;2022-11-15T23:37:28;9.15;;;4.65;;
25301;SDS011;13243;50.888;4.724;2022-11-15T23:42:30;8.13;;;4.47;;
25301;SDS011;13243;50.888;4.724;2022-11-15T23:47:32;6.85;;;4.65;;
25301;SDS011;13243;50.888;4.724;2022-11-15T23:52:34;7.95;;;4.50;;
25301;SDS011;13243;50.888;4.724;2022-11-15T23:57:36;7.43;;;4.60;;
